Pagrindinis puslapis
METAR-TAF:

METAR-TAF

Oro uostai :

Guangdžou, Kinija

platuma: 23-10N, ilguma: 113-20E, Aukštis: 8 m

Dabartinis oras

Ataskaita buvo paskelbta 27 minutes, ne 18:00 UTC
Vėjas 10 kt iš Šiaurės
Temperatūra 24°C
Drėgmė 57%
Slėgis 1018 hPa
Matomumas 10 km arba daugiau
Išsisklaidę debesys ne aukštis 6000 ft

METAR: ZGGG 171800Z 01005MPS 9999 SCT060 24/15 Q1018 NOSIG

Laikas: 02:27 (18:27 UTC)

Prognozė

Ataskaita buvo paskelbta 3 valandos ir 24 minutes, ne 15:03 UTC
Prognozė galioja nuo 17 metu 18 UTC su 18 metu 18 UTC
Vėjas 8 kt iš Šiaurės
Matomumas: 8000 m
Išsisklaidę debesys ne aukštis 4000 ft

TAF: ZGGG 171503Z 1718/1818 36004MPS 8000 SCT040 TX31/1807Z TN22/1722Z

Orai ataskaitas ir orų prognozės (METAR, TAF).

turimą stotys yra geltonos ir raudonos taškus žemėlapyje.

Perkelti pele per norėdami pamatyti stoties vardą.

Tada spustelėkite, norėdami matyti oro stebėjimo ir prognozės.

Norėdami pakeisti žemėlapį: spustelėkite ant žalios mygtukų su juodo kryžiaus žemyn,; žalią mygtuką su brūkšneliu, jei norite nutolinti; arba žalių rodyklių gretimoms žemėlapius.


METAR-TAF: